sensor_id;sensor_type;location;lat;lon;timestamp;P1;durP1;ratioP1;P2;durP2;ratioP2
10082;SDS011;5080;48.528;8.078;2023-04-01T00:01:09;0.60;;;0.60;;
10082;SDS011;5080;48.528;8.078;2023-04-01T00:03:41;0.60;;;0.60;;
10082;SDS011;5080;48.528;8.078;2023-04-01T00:06:09;0.57;;;0.57;;
10082;SDS011;5080;48.528;8.078;2023-04-01T00:08:38;0.60;;;0.60;;
10082;SDS011;5080;48.528;8.078;2023-04-01T00:11:05;0.80;;;0.80;;
10082;SDS011;5080;48.528;8.078;2023-04-01T00:13:32;0.60;;;0.60;;
10082;SDS011;5080;48.528;8.078;2023-04-01T00:15:59;0.70;;;0.70;;
10082;SDS011;5080;48.528;8.078;2023-04-01T00:18:26;0.50;;;0.50;;
10082;SDS011;5080;48.528;8.078;2023-04-01T00:20:55;0.40;;;0.40;;
10082;SDS011;5080;48.528;8.078;2023-04-01T00:23:21;0.60;;;0.60;;
10082;SDS011;5080;48.528;8.078;2023-04-01T00:25:48;0.70;;;0.70;;
10082;SDS011;5080;48.528;8.078;2023-04-01T00:28:15;0.63;;;0.63;;
10082;SDS011;5080;48.528;8.078;2023-04-01T00:30:43;0.50;;;0.50;;
10082;SDS011;5080;48.528;8.078;2023-04-01T00:33:10;0.53;;;0.53;;
10082;SDS011;5080;48.528;8.078;2023-04-01T00:35:37;0.50;;;0.50;;
10082;SDS011;5080;48.528;8.078;2023-04-01T00:38:05;0.40;;;0.40;;
10082;SDS011;5080;48.528;8.078;2023-04-01T00:40:33;0.37;;;0.37;;
10082;SDS011;5080;48.528;8.078;2023-04-01T00:43:01;0.60;;;0.60;;
10082;SDS011;5080;48.528;8.078;2023-04-01T00:45:30;0.60;;;0.60;;
10082;SDS011;5080;48.528;8.078;2023-04-01T00:47:59;0.60;;;0.60;;
10082;SDS011;5080;48.528;8.078;2023-04-01T00:50:30;0.30;;;0.30;;
10082;SDS011;5080;48.528;8.078;2023-04-01T00:52:58;0.40;;;0.40;;
10082;SDS011;5080;48.528;8.078;2023-04-01T00:55:28;0.20;;;0.20;;
10082;SDS011;5080;48.528;8.078;2023-04-01T00:57:59;0.20;;;0.20;;
10082;SDS011;5080;48.528;8.078;2023-04-01T01:00:29;0.40;;;0.40;;
10082;SDS011;5080;48.528;8.078;2023-04-01T01:02:57;0.30;;;0.30;;
10082;SDS011;5080;48.528;8.078;2023-04-01T01:05:27;0.30;;;0.30;;
10082;SDS011;5080;48.528;8.078;2023-04-01T01:08:06;0.47;;;0.47;;
10082;SDS011;5080;48.528;8.078;2023-04-01T01:10:41;0.20;;;0.20;;
10082;SDS011;5080;48.528;8.078;2023-04-01T01:13:14;0.40;;;0.40;;
10082;SDS011;5080;48.528;8.078;2023-04-01T01:15:46;0.20;;;0.20;;
10082;SDS011;5080;48.528;8.078;2023-04-01T01:18:18;0.30;;;0.30;;
10082;SDS011;5080;48.528;8.078;2023-04-01T01:20:55;0.37;;;0.37;;
10082;SDS011;5080;48.528;8.078;2023-04-01T01:26:58;0.10;;;0.10;;
10082;SDS011;5080;48.528;8.078;2023-04-01T01:29:44;0.33;;;0.33;;
10082;SDS011;5080;48.528;8.078;2023-04-01T01:32:23;0.20;;;0.20;;
10082;SDS011;5080;48.528;8.078;2023-04-01T01:35:18;0.30;;;0.30;;
10082;SDS011;5080;48.528;8.078;2023-04-01T01:37:49;0.30;;;0.30;;
10082;SDS011;5080;48.528;8.078;2023-04-01T01:40:18;0.10;;;0.10;;
10082;SDS011;5080;48.528;8.078;2023-04-01T01:42:48;0.30;;;0.30;;
10082;SDS011;5080;48.528;8.078;2023-04-01T01:45:19;0.20;;;0.20;;
10082;SDS011;5080;48.528;8.078;2023-04-01T01:47:48;0.20;;;0.20;;
10082;SDS011;5080;48.528;8.078;2023-04-01T01:50:18;0.10;;;0.10;;
10082;SDS011;5080;48.528;8.078;2023-04-01T01:52:46;0.20;;;0.20;;
10082;SDS011;5080;48.528;8.078;2023-04-01T01:57:59;0.30;;;0.30;;
10082;SDS011;5080;48.528;8.078;2023-04-01T02:00:30;0.50;;;0.50;;
10082;SDS011;5080;48.528;8.078;2023-04-01T02:02:58;0.27;;;0.27;;
10082;SDS011;5080;48.528;8.078;2023-04-01T02:05:27;0.35;;;0.35;;
10082;SDS011;5080;48.528;8.078;2023-04-01T02:07:57;0.37;;;0.37;;
10082;SDS011;5080;48.528;8.078;2023-04-01T02:10:28;0.30;;;0.30;;
10082;SDS011;5080;48.528;8.078;2023-04-01T02:13:01;0.30;;;0.30;;
10082;SDS011;5080;48.528;8.078;2023-04-01T02:15:35;0.30;;;0.30;;
10082;SDS011;5080;48.528;8.078;2023-04-01T02:18:07;0.50;;;0.30;;
10082;SDS011;5080;48.528;8.078;2023-04-01T02:20:36;0.30;;;0.30;;
10082;SDS011;5080;48.528;8.078;2023-04-01T02:23:05;0.30;;;0.30;;
10082;SDS011;5080;48.528;8.078;2023-04-01T02:25:34;0.23;;;0.23;;
10082;SDS011;5080;48.528;8.078;2023-04-01T02:28:02;0.20;;;0.20;;
10082;SDS011;5080;48.528;8.078;2023-04-01T02:30:33;0.20;;;0.20;;
10082;SDS011;5080;48.528;8.078;2023-04-01T02:33:01;0.30;;;0.30;;
10082;SDS011;5080;48.528;8.078;2023-04-01T02:35:29;0.37;;;0.37;;
10082;SDS011;5080;48.528;8.078;2023-04-01T02:37:57;0.30;;;0.30;;
10082;SDS011;5080;48.528;8.078;2023-04-01T02:40:25;0.20;;;0.20;;
10082;SDS011;5080;48.528;8.078;2023-04-01T02:42:51;0.37;;;0.37;;
10082;SDS011;5080;48.528;8.078;2023-04-01T02:45:18;0.40;;;0.40;;
10082;SDS011;5080;48.528;8.078;2023-04-01T02:47:45;0.30;;;0.30;;
10082;SDS011;5080;48.528;8.078;2023-04-01T02:50:12;0.30;;;0.30;;
10082;SDS011;5080;48.528;8.078;2023-04-01T02:52:39;0.30;;;0.30;;
10082;SDS011;5080;48.528;8.078;2023-04-01T02:55:08;0.40;;;0.40;;
10082;SDS011;5080;48.528;8.078;2023-04-01T02:57:35;0.30;;;0.30;;
10082;SDS011;5080;48.528;8.078;2023-04-01T03:00:02;0.30;;;0.30;;
10082;SDS011;5080;48.528;8.078;2023-04-01T03:02:35;0.43;;;0.40;;
10082;SDS011;5080;48.528;8.078;2023-04-01T03:05:03;0.33;;;0.33;;
10082;SDS011;5080;48.528;8.078;2023-04-01T03:07:30;0.50;;;0.50;;
10082;SDS011;5080;48.528;8.078;2023-04-01T03:09:57;0.50;;;0.50;;
10082;SDS011;5080;48.528;8.078;2023-04-01T03:12:25;0.30;;;0.30;;
10082;SDS011;5080;48.528;8.078;2023-04-01T03:14:52;0.50;;;0.50;;
10082;SDS011;5080;48.528;8.078;2023-04-01T03:17:19;0.40;;;0.40;;
10082;SDS011;5080;48.528;8.078;2023-04-01T03:19:46;0.33;;;0.33;;
10082;SDS011;5080;48.528;8.078;2023-04-01T03:22:13;0.40;;;0.40;;
10082;SDS011;5080;48.528;8.078;2023-04-01T03:24:40;0.50;;;0.50;;
10082;SDS011;5080;48.528;8.078;2023-04-01T03:27:07;0.50;;;0.50;;
10082;SDS011;5080;48.528;8.078;2023-04-01T03:29:35;0.60;;;0.60;;
10082;SDS011;5080;48.528;8.078;2023-04-01T03:32:02;0.80;;;0.80;;
10082;SDS011;5080;48.528;8.078;2023-04-01T03:34:28;0.90;;;0.90;;
10082;SDS011;5080;48.528;8.078;2023-04-01T03:36:55;0.80;;;0.80;;
10082;SDS011;5080;48.528;8.078;2023-04-01T03:39:22;0.53;;;0.53;;
10082;SDS011;5080;48.528;8.078;2023-04-01T03:41:50;0.50;;;0.50;;
10082;SDS011;5080;48.528;8.078;2023-04-01T03:44:17;0.40;;;0.40;;
10082;SDS011;5080;48.528;8.078;2023-04-01T03:46:45;0.70;;;0.70;;
10082;SDS011;5080;48.528;8.078;2023-04-01T03:49:12;0.90;;;0.90;;
10082;SDS011;5080;48.528;8.078;2023-04-01T03:51:38;0.90;;;0.90;;
10082;SDS011;5080;48.528;8.078;2023-04-01T03:54:06;0.87;;;0.87;;
10082;SDS011;5080;48.528;8.078;2023-04-01T03:56:34;0.70;;;0.70;;
10082;SDS011;5080;48.528;8.078;2023-04-01T03:59:01;0.67;;;0.67;;
10082;SDS011;5080;48.528;8.078;2023-04-01T04:01:29;0.70;;;0.70;;
10082;SDS011;5080;48.528;8.078;2023-04-01T04:03:57;0.80;;;0.80;;
10082;SDS011;5080;48.528;8.078;2023-04-01T04:06:27;0.80;;;0.80;;
10082;SDS011;5080;48.528;8.078;2023-04-01T04:08:55;0.70;;;0.70;;
10082;SDS011;5080;48.528;8.078;2023-04-01T04:11:22;0.90;;;0.90;;
10082;SDS011;5080;48.528;8.078;2023-04-01T04:13:49;0.97;;;0.87;;
10082;SDS011;5080;48.528;8.078;2023-04-01T04:16:17;0.77;;;0.77;;
10082;SDS011;5080;48.528;8.078;2023-04-01T04:18:44;0.63;;;0.63;;
10082;SDS011;5080;48.528;8.078;2023-04-01T04:21:13;0.60;;;0.60;;
10082;SDS011;5080;48.528;8.078;2023-04-01T04:23:41;0.60;;;0.60;;
10082;SDS011;5080;48.528;8.078;2023-04-01T04:26:09;0.70;;;0.70;;
10082;SDS011;5080;48.528;8.078;2023-04-01T04:28:38;0.50;;;0.50;;
10082;SDS011;5080;48.528;8.078;2023-04-01T04:31:05;0.40;;;0.40;;
10082;SDS011;5080;48.528;8.078;2023-04-01T04:33:33;0.50;;;0.50;;
10082;SDS011;5080;48.528;8.078;2023-04-01T04:36:01;0.60;;;0.60;;
10082;SDS011;5080;48.528;8.078;2023-04-01T04:38:30;0.40;;;0.40;;
10082;SDS011;5080;48.528;8.078;2023-04-01T04:40:57;0.50;;;0.50;;
10082;SDS011;5080;48.528;8.078;2023-04-01T04:43:24;0.43;;;0.43;;
10082;SDS011;5080;48.528;8.078;2023-04-01T04:45:50;0.50;;;0.50;;
10082;SDS011;5080;48.528;8.078;2023-04-01T04:48:17;0.47;;;0.47;;
10082;SDS011;5080;48.528;8.078;2023-04-01T04:50:45;0.43;;;0.43;;
10082;SDS011;5080;48.528;8.078;2023-04-01T04:53:13;0.40;;;0.40;;
10082;SDS011;5080;48.528;8.078;2023-04-01T04:55:45;0.53;;;0.53;;
10082;SDS011;5080;48.528;8.078;2023-04-01T04:58:13;0.70;;;0.70;;
10082;SDS011;5080;48.528;8.078;2023-04-01T05:00:40;0.60;;;0.60;;
10082;SDS011;5080;48.528;8.078;2023-04-01T05:03:08;0.50;;;0.50;;
10082;SDS011;5080;48.528;8.078;2023-04-01T05:05:35;0.73;;;0.73;;
10082;SDS011;5080;48.528;8.078;2023-04-01T05:08:02;0.70;;;0.70;;
10082;SDS011;5080;48.528;8.078;2023-04-01T05:10:29;0.90;;;0.90;;
10082;SDS011;5080;48.528;8.078;2023-04-01T05:12:58;0.80;;;0.80;;
10082;SDS011;5080;48.528;8.078;2023-04-01T05:15:24;0.90;;;0.90;;
10082;SDS011;5080;48.528;8.078;2023-04-01T05:17:51;0.70;;;0.70;;
10082;SDS011;5080;48.528;8.078;2023-04-01T05:20:18;0.60;;;0.60;;
10082;SDS011;5080;48.528;8.078;2023-04-01T05:22:45;0.70;;;0.70;;
10082;SDS011;5080;48.528;8.078;2023-04-01T05:25:12;0.70;;;0.70;;
10082;SDS011;5080;48.528;8.078;2023-04-01T05:27:39;0.70;;;0.70;;
10082;SDS011;5080;48.528;8.078;2023-04-01T05:30:07;0.70;;;0.70;;
10082;SDS011;5080;48.528;8.078;2023-04-01T05:32:36;0.67;;;0.67;;
10082;SDS011;5080;48.528;8.078;2023-04-01T05:35:03;0.65;;;0.65;;
10082;SDS011;5080;48.528;8.078;2023-04-01T05:37:30;0.70;;;0.70;;
10082;SDS011;5080;48.528;8.078;2023-04-01T05:39:59;0.60;;;0.60;;
10082;SDS011;5080;48.528;8.078;2023-04-01T05:42:25;0.87;;;0.70;;
10082;SDS011;5080;48.528;8.078;2023-04-01T05:44:52;0.83;;;0.83;;
10082;SDS011;5080;48.528;8.078;2023-04-01T05:47:22;0.83;;;0.83;;
10082;SDS011;5080;48.528;8.078;2023-04-01T05:49:49;0.50;;;0.50;;
10082;SDS011;5080;48.528;8.078;2023-04-01T05:52:15;0.70;;;0.70;;
10082;SDS011;5080;48.528;8.078;2023-04-01T05:54:43;0.87;;;0.87;;
10082;SDS011;5080;48.528;8.078;2023-04-01T05:57:09;0.60;;;0.60;;
10082;SDS011;5080;48.528;8.078;2023-04-01T05:59:37;0.60;;;0.60;;
10082;SDS011;5080;48.528;8.078;2023-04-01T06:02:04;0.60;;;0.60;;
10082;SDS011;5080;48.528;8.078;2023-04-01T06:04:34;0.70;;;0.70;;
10082;SDS011;5080;48.528;8.078;2023-04-01T06:07:10;0.75;;;0.75;;
10082;SDS011;5080;48.528;8.078;2023-04-01T06:09:38;0.65;;;0.65;;
10082;SDS011;5080;48.528;8.078;2023-04-01T06:15:07;0.47;;;0.47;;
10082;SDS011;5080;48.528;8.078;2023-04-01T06:17:49;0.70;;;0.70;;
10082;SDS011;5080;48.528;8.078;2023-04-01T06:20:30;0.70;;;0.70;;
10082;SDS011;5080;48.528;8.078;2023-04-01T06:23:23;0.53;;;0.53;;
10082;SDS011;5080;48.528;8.078;2023-04-01T06:26:11;0.77;;;0.77;;
10082;SDS011;5080;48.528;8.078;2023-04-01T06:29:00;0.87;;;0.87;;
10082;SDS011;5080;48.528;8.078;2023-04-01T06:31:56;0.90;;;0.90;;
10082;SDS011;5080;48.528;8.078;2023-04-01T06:34:47;0.80;;;0.80;;
10082;SDS011;5080;48.528;8.078;2023-04-01T06:37:26;0.70;;;0.70;;
10082;SDS011;5080;48.528;8.078;2023-04-01T06:40:35;0.80;;;0.63;;
10082;SDS011;5080;48.528;8.078;2023-04-01T06:43:13;0.90;;;0.90;;
10082;SDS011;5080;48.528;8.078;2023-04-01T06:45:46;0.60;;;0.60;;
10082;SDS011;5080;48.528;8.078;2023-04-01T06:48:24;0.73;;;0.73;;
10082;SDS011;5080;48.528;8.078;2023-04-01T06:51:17;1.10;;;1.00;;
10082;SDS011;5080;48.528;8.078;2023-04-01T06:53:54;1.20;;;1.20;;
10082;SDS011;5080;48.528;8.078;2023-04-01T06:56:27;1.60;;;1.50;;
10082;SDS011;5080;48.528;8.078;2023-04-01T06:58:56;1.20;;;1.20;;
10082;SDS011;5080;48.528;8.078;2023-04-01T07:01:26;1.23;;;1.13;;
10082;SDS011;5080;48.528;8.078;2023-04-01T07:03:59;1.70;;;1.60;;
10082;SDS011;5080;48.528;8.078;2023-04-01T07:06:28;2.33;;;2.22;;
10082;SDS011;5080;48.528;8.078;2023-04-01T07:09:00;1.50;;;1.40;;
10082;SDS011;5080;48.528;8.078;2023-04-01T07:11:31;1.40;;;1.30;;
10082;SDS011;5080;48.528;8.078;2023-04-01T07:14:01;1.60;;;1.50;;
10082;SDS011;5080;48.528;8.078;2023-04-01T07:16:30;1.90;;;1.80;;
10082;SDS011;5080;48.528;8.078;2023-04-01T07:19:02;2.17;;;2.08;;
10082;SDS011;5080;48.528;8.078;2023-04-01T07:21:35;1.60;;;1.50;;
10082;SDS011;5080;48.528;8.078;2023-04-01T07:24:09;1.80;;;1.70;;
10082;SDS011;5080;48.528;8.078;2023-04-01T07:26:40;1.83;;;1.73;;
10082;SDS011;5080;48.528;8.078;2023-04-01T07:29:09;2.28;;;2.17;;
10082;SDS011;5080;48.528;8.078;2023-04-01T07:31:42;1.97;;;1.87;;
10082;SDS011;5080;48.528;8.078;2023-04-01T07:34:18;1.90;;;1.80;;
10082;SDS011;5080;48.528;8.078;2023-04-01T07:36:52;1.58;;;1.48;;
10082;SDS011;5080;48.528;8.078;2023-04-01T07:39:28;1.20;;;1.10;;
10082;SDS011;5080;48.528;8.078;2023-04-01T07:42:05;1.00;;;1.00;;
10082;SDS011;5080;48.528;8.078;2023-04-01T07:44:43;1.00;;;1.00;;
10082;SDS011;5080;48.528;8.078;2023-04-01T07:47:23;1.10;;;1.10;;
10082;SDS011;5080;48.528;8.078;2023-04-01T07:50:02;0.88;;;0.88;;
10082;SDS011;5080;48.528;8.078;2023-04-01T07:52:40;0.70;;;0.70;;
10082;SDS011;5080;48.528;8.078;2023-04-01T07:55:16;0.88;;;0.88;;
10082;SDS011;5080;48.528;8.078;2023-04-01T07:57:49;0.88;;;0.88;;
10082;SDS011;5080;48.528;8.078;2023-04-01T08:00:22;0.73;;;0.73;;
10082;SDS011;5080;48.528;8.078;2023-04-01T08:03:05;0.80;;;0.80;;
10082;SDS011;5080;48.528;8.078;2023-04-01T08:05:49;0.70;;;0.70;;
10082;SDS011;5080;48.528;8.078;2023-04-01T08:08:24;0.80;;;0.80;;
10082;SDS011;5080;48.528;8.078;2023-04-01T08:11:01;0.70;;;0.70;;
10082;SDS011;5080;48.528;8.078;2023-04-01T08:13:39;0.60;;;0.60;;
10082;SDS011;5080;48.528;8.078;2023-04-01T08:16:12;0.60;;;0.60;;
10082;SDS011;5080;48.528;8.078;2023-04-01T08:18:47;0.60;;;0.60;;
10082;SDS011;5080;48.528;8.078;2023-04-01T08:21:24;0.63;;;0.63;;
10082;SDS011;5080;48.528;8.078;2023-04-01T08:23:55;0.53;;;0.53;;
10082;SDS011;5080;48.528;8.078;2023-04-01T08:26:28;0.77;;;0.77;;
10082;SDS011;5080;48.528;8.078;2023-04-01T08:29:05;0.70;;;0.70;;
10082;SDS011;5080;48.528;8.078;2023-04-01T08:31:37;1.50;;;1.40;;
10082;SDS011;5080;48.528;8.078;2023-04-01T08:34:08;1.60;;;1.50;;
10082;SDS011;5080;48.528;8.078;2023-04-01T08:36:40;1.55;;;1.45;;
10082;SDS011;5080;48.528;8.078;2023-04-01T08:39:09;0.88;;;0.88;;
10082;SDS011;5080;48.528;8.078;2023-04-01T08:41:48;0.60;;;0.60;;
10082;SDS011;5080;48.528;8.078;2023-04-01T08:44:43;0.80;;;0.80;;
10082;SDS011;5080;48.528;8.078;2023-04-01T08:47:46;0.53;;;0.53;;
10082;SDS011;5080;48.528;8.078;2023-04-01T08:50:26;0.77;;;0.77;;
10082;SDS011;5080;48.528;8.078;2023-04-01T08:53:07;1.10;;;1.10;;
10082;SDS011;5080;48.528;8.078;2023-04-01T08:55:47;0.63;;;0.63;;
10082;SDS011;5080;48.528;8.078;2023-04-01T08:58:34;0.57;;;0.57;;
10082;SDS011;5080;48.528;8.078;2023-04-01T09:01:34;0.63;;;0.63;;
10082;SDS011;5080;48.528;8.078;2023-04-01T09:04:25;0.50;;;0.50;;
10082;SDS011;5080;48.528;8.078;2023-04-01T09:07:02;0.43;;;0.43;;
10082;SDS011;5080;48.528;8.078;2023-04-01T09:09:39;0.60;;;0.60;;
10082;SDS011;5080;48.528;8.078;2023-04-01T09:12:26;0.52;;;0.52;;
10082;SDS011;5080;48.528;8.078;2023-04-01T09:26:57;0.50;;;0.50;;
10082;SDS011;5080;48.528;8.078;2023-04-01T09:32:50;0.30;;;0.30;;
10082;SDS011;5080;48.528;8.078;2023-04-01T09:35:42;0.60;;;0.60;;
10082;SDS011;5080;48.528;8.078;2023-04-01T09:38:22;1.17;;;0.83;;
10082;SDS011;5080;48.528;8.078;2023-04-01T09:40:55;0.60;;;0.60;;
10082;SDS011;5080;48.528;8.078;2023-04-01T09:43:27;0.60;;;0.60;;
10082;SDS011;5080;48.528;8.078;2023-04-01T09:46:04;0.50;;;0.50;;
10082;SDS011;5080;48.528;8.078;2023-04-01T09:48:46;0.50;;;0.50;;
10082;SDS011;5080;48.528;8.078;2023-04-01T09:51:36;0.40;;;0.40;;
10082;SDS011;5080;48.528;8.078;2023-04-01T09:54:10;0.50;;;0.50;;
10082;SDS011;5080;48.528;8.078;2023-04-01T09:59:51;0.70;;;0.70;;
10082;SDS011;5080;48.528;8.078;2023-04-01T10:11:59;0.60;;;0.60;;
10082;SDS011;5080;48.528;8.078;2023-04-01T10:15:07;0.57;;;0.57;;
10082;SDS011;5080;48.528;8.078;2023-04-01T10:27:02;0.33;;;0.33;;
10082;SDS011;5080;48.528;8.078;2023-04-01T10:32:49;1.13;;;1.13;;
10082;SDS011;5080;48.528;8.078;2023-04-01T10:36:03;0.97;;;0.97;;
10082;SDS011;5080;48.528;8.078;2023-04-01T10:38:55;0.70;;;0.70;;
10082;SDS011;5080;48.528;8.078;2023-04-01T10:42:02;0.80;;;0.80;;
10082;SDS011;5080;48.528;8.078;2023-04-01T10:45:02;0.63;;;0.63;;
10082;SDS011;5080;48.528;8.078;2023-04-01T10:47:53;0.50;;;0.50;;
10082;SDS011;5080;48.528;8.078;2023-04-01T10:50:53;0.30;;;0.30;;
10082;SDS011;5080;48.528;8.078;2023-04-01T10:53:43;0.47;;;0.47;;
10082;SDS011;5080;48.528;8.078;2023-04-01T10:56:38;0.60;;;0.60;;
10082;SDS011;5080;48.528;8.078;2023-04-01T10:59:20;0.87;;;0.87;;
10082;SDS011;5080;48.528;8.078;2023-04-01T11:12:11;0.43;;;0.43;;
10082;SDS011;5080;48.528;8.078;2023-04-01T11:18:19;0.50;;;0.50;;
10082;SDS011;5080;48.528;8.078;2023-04-01T11:26:59;0.70;;;0.70;;
10082;SDS011;5080;48.528;8.078;2023-04-01T11:29:47;0.60;;;0.60;;
10082;SDS011;5080;48.528;8.078;2023-04-01T11:32:43;0.60;;;0.60;;
10082;SDS011;5080;48.528;8.078;2023-04-01T11:35:26;0.50;;;0.50;;
10082;SDS011;5080;48.528;8.078;2023-04-01T11:38:04;0.43;;;0.43;;
10082;SDS011;5080;48.528;8.078;2023-04-01T11:40:45;0.30;;;0.30;;
10082;SDS011;5080;48.528;8.078;2023-04-01T11:43:19;0.60;;;0.60;;
10082;SDS011;5080;48.528;8.078;2023-04-01T11:45:56;0.60;;;0.60;;
10082;SDS011;5080;48.528;8.078;2023-04-01T11:48:36;0.53;;;0.53;;
10082;SDS011;5080;48.528;8.078;2023-04-01T11:54:23;0.60;;;0.60;;
10082;SDS011;5080;48.528;8.078;2023-04-01T11:57:14;0.70;;;0.70;;
10082;SDS011;5080;48.528;8.078;2023-04-01T11:59:57;0.70;;;0.70;;
10082;SDS011;5080;48.528;8.078;2023-04-01T12:02:44;0.50;;;0.50;;
10082;SDS011;5080;48.528;8.078;2023-04-01T12:05:28;0.47;;;0.47;;
10082;SDS011;5080;48.528;8.078;2023-04-01T12:08:13;0.60;;;0.60;;
10082;SDS011;5080;48.528;8.078;2023-04-01T12:10:51;0.40;;;0.40;;
10082;SDS011;5080;48.528;8.078;2023-04-01T12:13:27;0.60;;;0.60;;
10082;SDS011;5080;48.528;8.078;2023-04-01T12:16:04;0.60;;;0.60;;
10082;SDS011;5080;48.528;8.078;2023-04-01T12:18:42;0.50;;;0.50;;
10082;SDS011;5080;48.528;8.078;2023-04-01T12:21:15;0.70;;;0.70;;
10082;SDS011;5080;48.528;8.078;2023-04-01T12:23:56;0.50;;;0.50;;
10082;SDS011;5080;48.528;8.078;2023-04-01T12:26:42;0.30;;;0.30;;
10082;SDS011;5080;48.528;8.078;2023-04-01T12:32:15;0.30;;;0.30;;
10082;SDS011;5080;48.528;8.078;2023-04-01T12:34:55;0.53;;;0.53;;
10082;SDS011;5080;48.528;8.078;2023-04-01T12:37:34;0.40;;;0.40;;
10082;SDS011;5080;48.528;8.078;2023-04-01T12:40:13;0.60;;;0.60;;
10082;SDS011;5080;48.528;8.078;2023-04-01T12:42:53;0.33;;;0.33;;
10082;SDS011;5080;48.528;8.078;2023-04-01T12:45:28;0.50;;;0.50;;
10082;SDS011;5080;48.528;8.078;2023-04-01T12:54:13;0.40;;;0.40;;
10082;SDS011;5080;48.528;8.078;2023-04-01T12:56:57;0.50;;;0.50;;
10082;SDS011;5080;48.528;8.078;2023-04-01T12:59:39;0.50;;;0.50;;
10082;SDS011;5080;48.528;8.078;2023-04-01T13:02:21;0.40;;;0.40;;
10082;SDS011;5080;48.528;8.078;2023-04-01T13:10:35;0.30;;;0.30;;
10082;SDS011;5080;48.528;8.078;2023-04-01T13:13:15;0.30;;;0.30;;
10082;SDS011;5080;48.528;8.078;2023-04-01T13:15:58;0.45;;;0.45;;
10082;SDS011;5080;48.528;8.078;2023-04-01T13:18:38;0.40;;;0.40;;
10082;SDS011;5080;48.528;8.078;2023-04-01T13:21:16;0.30;;;0.30;;
10082;SDS011;5080;48.528;8.078;2023-04-01T13:23:52;0.30;;;0.30;;
10082;SDS011;5080;48.528;8.078;2023-04-01T13:26:29;0.43;;;0.43;;
10082;SDS011;5080;48.528;8.078;2023-04-01T13:29:04;0.57;;;0.57;;
10082;SDS011;5080;48.528;8.078;2023-04-01T13:31:47;0.60;;;0.60;;
10082;SDS011;5080;48.528;8.078;2023-04-01T13:34:28;0.50;;;0.50;;
10082;SDS011;5080;48.528;8.078;2023-04-01T13:37:06;0.30;;;0.30;;
10082;SDS011;5080;48.528;8.078;2023-04-01T13:39:45;0.50;;;0.50;;
10082;SDS011;5080;48.528;8.078;2023-04-01T13:42:24;0.50;;;0.50;;
10082;SDS011;5080;48.528;8.078;2023-04-01T13:44:56;0.50;;;0.50;;
10082;SDS011;5080;48.528;8.078;2023-04-01T13:47:40;0.52;;;0.52;;
10082;SDS011;5080;48.528;8.078;2023-04-01T13:50:30;0.57;;;0.57;;
10082;SDS011;5080;48.528;8.078;2023-04-01T13:55:55;0.40;;;0.40;;
10082;SDS011;5080;48.528;8.078;2023-04-01T13:58:43;0.40;;;0.40;;
10082;SDS011;5080;48.528;8.078;2023-04-01T14:01:30;0.43;;;0.43;;
10082;SDS011;5080;48.528;8.078;2023-04-01T14:04:03;0.40;;;0.40;;
10082;SDS011;5080;48.528;8.078;2023-04-01T14:07:00;0.33;;;0.33;;
10082;SDS011;5080;48.528;8.078;2023-04-01T14:09:45;0.60;;;0.60;;
10082;SDS011;5080;48.528;8.078;2023-04-01T14:12:27;0.50;;;0.50;;
10082;SDS011;5080;48.528;8.078;2023-04-01T14:15:07;0.50;;;0.50;;
10082;SDS011;5080;48.528;8.078;2023-04-01T14:17:58;0.68;;;0.68;;
10082;SDS011;5080;48.528;8.078;2023-04-01T14:20:36;0.40;;;0.40;;
10082;SDS011;5080;48.528;8.078;2023-04-01T14:23:11;0.52;;;0.52;;
10082;SDS011;5080;48.528;8.078;2023-04-01T14:26:03;0.50;;;0.50;;
10082;SDS011;5080;48.528;8.078;2023-04-01T14:28:40;0.40;;;0.40;;
10082;SDS011;5080;48.528;8.078;2023-04-01T14:31:17;0.47;;;0.47;;
10082;SDS011;5080;48.528;8.078;2023-04-01T14:33:57;0.60;;;0.60;;
10082;SDS011;5080;48.528;8.078;2023-04-01T14:39:48;0.60;;;0.60;;
10082;SDS011;5080;48.528;8.078;2023-04-01T14:48:33;0.80;;;0.80;;
10082;SDS011;5080;48.528;8.078;2023-04-01T14:51:04;1.00;;;0.90;;
10082;SDS011;5080;48.528;8.078;2023-04-01T14:53:41;0.60;;;0.60;;
10082;SDS011;5080;48.528;8.078;2023-04-01T14:59:04;0.75;;;0.75;;
10082;SDS011;5080;48.528;8.078;2023-04-01T15:01:42;0.67;;;0.67;;
10082;SDS011;5080;48.528;8.078;2023-04-01T15:10:21;0.70;;;0.70;;
10082;SDS011;5080;48.528;8.078;2023-04-01T15:13:10;1.00;;;1.00;;
10082;SDS011;5080;48.528;8.078;2023-04-01T15:15:44;0.73;;;0.73;;
10082;SDS011;5080;48.528;8.078;2023-04-01T15:18:27;0.68;;;0.68;;
10082;SDS011;5080;48.528;8.078;2023-04-01T15:21:15;0.70;;;0.70;;
10082;SDS011;5080;48.528;8.078;2023-04-01T15:23:56;0.70;;;0.70;;
10082;SDS011;5080;48.528;8.078;2023-04-01T15:26:42;0.63;;;0.63;;
10082;SDS011;5080;48.528;8.078;2023-04-01T15:32:28;0.70;;;0.70;;
10082;SDS011;5080;48.528;8.078;2023-04-01T15:35:12;0.60;;;0.60;;
10082;SDS011;5080;48.528;8.078;2023-04-01T15:37:48;0.50;;;0.50;;
10082;SDS011;5080;48.528;8.078;2023-04-01T15:40:20;0.70;;;0.70;;
10082;SDS011;5080;48.528;8.078;2023-04-01T15:42:58;0.80;;;0.80;;
10082;SDS011;5080;48.528;8.078;2023-04-01T15:45:33;1.10;;;1.10;;
10082;SDS011;5080;48.528;8.078;2023-04-01T15:48:10;1.07;;;1.07;;
10082;SDS011;5080;48.528;8.078;2023-04-01T15:50:54;0.90;;;0.90;;
10082;SDS011;5080;48.528;8.078;2023-04-01T15:53:37;0.90;;;0.90;;
10082;SDS011;5080;48.528;8.078;2023-04-01T15:56:21;0.90;;;0.90;;
10082;SDS011;5080;48.528;8.078;2023-04-01T15:58:57;0.90;;;0.90;;
10082;SDS011;5080;48.528;8.078;2023-04-01T16:01:35;1.00;;;1.00;;
10082;SDS011;5080;48.528;8.078;2023-04-01T16:07:04;0.98;;;0.98;;
10082;SDS011;5080;48.528;8.078;2023-04-01T16:09:47;0.77;;;0.77;;
10082;SDS011;5080;48.528;8.078;2023-04-01T16:12:29;0.80;;;0.80;;
10082;SDS011;5080;48.528;8.078;2023-04-01T16:15:10;0.83;;;0.83;;
10082;SDS011;5080;48.528;8.078;2023-04-01T16:17:53;1.08;;;1.08;;
10082;SDS011;5080;48.528;8.078;2023-04-01T16:20:41;1.13;;;1.13;;
10082;SDS011;5080;48.528;8.078;2023-04-01T16:23:14;0.90;;;0.90;;
10082;SDS011;5080;48.528;8.078;2023-04-01T16:25:49;0.87;;;0.87;;
10082;SDS011;5080;48.528;8.078;2023-04-01T16:28:21;0.90;;;0.90;;
10082;SDS011;5080;48.528;8.078;2023-04-01T16:30:55;0.80;;;0.80;;
10082;SDS011;5080;48.528;8.078;2023-04-01T16:33:29;0.50;;;0.50;;
10082;SDS011;5080;48.528;8.078;2023-04-01T16:36:05;0.70;;;0.70;;
10082;SDS011;5080;48.528;8.078;2023-04-01T16:38:37;0.70;;;0.70;;
10082;SDS011;5080;48.528;8.078;2023-04-01T16:41:14;0.77;;;0.77;;
10082;SDS011;5080;48.528;8.078;2023-04-01T16:43:44;0.57;;;0.57;;
10082;SDS011;5080;48.528;8.078;2023-04-01T16:46:21;0.60;;;0.60;;
10082;SDS011;5080;48.528;8.078;2023-04-01T16:48:59;0.55;;;0.55;;
10082;SDS011;5080;48.528;8.078;2023-04-01T16:51:33;0.50;;;0.50;;
10082;SDS011;5080;48.528;8.078;2023-04-01T16:54:10;0.40;;;0.40;;
10082;SDS011;5080;48.528;8.078;2023-04-01T16:56:43;0.70;;;0.70;;
10082;SDS011;5080;48.528;8.078;2023-04-01T16:59:17;1.00;;;1.00;;
10082;SDS011;5080;48.528;8.078;2023-04-01T17:01:49;0.53;;;0.53;;
10082;SDS011;5080;48.528;8.078;2023-04-01T17:04:23;0.60;;;0.60;;
10082;SDS011;5080;48.528;8.078;2023-04-01T17:06:58;0.60;;;0.60;;
10082;SDS011;5080;48.528;8.078;2023-04-01T17:09:42;0.60;;;0.60;;
10082;SDS011;5080;48.528;8.078;2023-04-01T17:12:27;0.80;;;0.80;;
10082;SDS011;5080;48.528;8.078;2023-04-01T17:15:03;0.80;;;0.80;;
10082;SDS011;5080;48.528;8.078;2023-04-01T17:17:38;0.40;;;0.40;;
10082;SDS011;5080;48.528;8.078;2023-04-01T17:20:23;0.57;;;0.57;;
10082;SDS011;5080;48.528;8.078;2023-04-01T17:22:58;0.30;;;0.30;;
10082;SDS011;5080;48.528;8.078;2023-04-01T17:25:34;0.23;;;0.23;;
10082;SDS011;5080;48.528;8.078;2023-04-01T17:28:19;0.30;;;0.30;;
10082;SDS011;5080;48.528;8.078;2023-04-01T17:30:55;0.40;;;0.40;;
10082;SDS011;5080;48.528;8.078;2023-04-01T17:33:36;0.50;;;0.50;;
10082;SDS011;5080;48.528;8.078;2023-04-01T17:36:21;0.70;;;0.70;;
10082;SDS011;5080;48.528;8.078;2023-04-01T17:39:15;0.60;;;0.60;;
10082;SDS011;5080;48.528;8.078;2023-04-01T17:42:04;1.50;;;1.40;;
10082;SDS011;5080;48.528;8.078;2023-04-01T17:44:39;0.90;;;0.90;;